createdAt,value
2018-04-06T00:01:10.750Z,3.60
2018-04-06T00:03:38.266Z,2.47
2018-04-06T00:06:05.793Z,2.60
2018-04-06T00:08:33.323Z,2.83
2018-04-06T00:11:00.868Z,3.10
2018-04-06T00:13:28.413Z,3.60
2018-04-06T00:15:55.975Z,3.33
2018-04-06T00:18:23.498Z,3.07
2018-04-06T00:20:51.024Z,3.20
2018-04-06T00:23:18.553Z,3.37
2018-04-06T00:25:46.139Z,3.50
2018-04-06T00:28:13.705Z,3.50
2018-04-06T00:30:41.232Z,3.30
2018-04-06T00:33:08.778Z,3.07
2018-04-06T00:35:36.306Z,3.10
2018-04-06T00:38:03.829Z,3.17
2018-04-06T00:40:31.359Z,2.43
2018-04-06T00:42:58.881Z,3.40
2018-04-06T00:45:26.401Z,3.30
2018-04-06T00:47:53.980Z,3.03
2018-04-06T00:50:21.510Z,3.37
2018-04-06T00:52:49.102Z,2.40
2018-04-06T00:55:16.608Z,3.50
2018-04-06T00:57:44.221Z,3.00
2018-04-06T01:00:11.730Z,3.43
2018-04-06T01:02:39.262Z,3.60
2018-04-06T01:05:06.770Z,2.70
2018-04-06T01:07:34.320Z,3.27
2018-04-06T01:10:01.918Z,3.37
2018-04-06T01:12:29.442Z,3.03
2018-04-06T01:14:56.991Z,3.13
2018-04-06T01:17:24.505Z,3.17
2018-04-06T01:19:52.041Z,2.90
2018-04-06T01:22:19.598Z,3.23
2018-04-06T01:24:47.111Z,2.80
2018-04-06T01:27:14.636Z,3.70
2018-04-06T01:29:42.158Z,3.30
2018-04-06T01:32:09.672Z,3.43
2018-04-06T01:34:37.193Z,3.30
2018-04-06T01:37:04.702Z,3.37
2018-04-06T01:39:32.213Z,3.33
2018-04-06T01:41:59.717Z,2.90
2018-04-06T01:44:27.244Z,3.90
2018-04-06T01:46:54.821Z,4.03
2018-04-06T01:49:22.470Z,3.63
2018-04-06T01:51:49.990Z,2.90
2018-04-06T01:54:17.542Z,2.93
2018-04-06T01:56:45.058Z,3.27
2018-04-06T01:59:12.584Z,3.27
2018-04-06T02:01:40.119Z,3.80
2018-04-06T02:04:07.639Z,4.47
2018-04-06T02:06:35.286Z,3.40
2018-04-06T02:09:02.809Z,3.30
2018-04-06T02:11:30.335Z,3.40
2018-04-06T02:13:57.845Z,3.03
2018-04-06T02:16:25.353Z,3.13
2018-04-06T02:18:52.893Z,4.13
2018-04-06T02:21:20.411Z,3.37
2018-04-06T02:23:47.934Z,3.23
2018-04-06T02:26:15.456Z,3.50
2018-04-06T02:28:43.017Z,4.33
2018-04-06T02:31:10.577Z,3.10
2018-04-06T02:33:38.099Z,3.40
2018-04-06T02:36:05.696Z,3.40
2018-04-06T02:38:33.209Z,3.67
2018-04-06T02:41:00.724Z,2.87
2018-04-06T02:43:28.242Z,3.67
2018-04-06T02:45:55.795Z,3.87
2018-04-06T02:48:23.327Z,3.10
2018-04-06T02:50:50.938Z,4.47
2018-04-06T02:53:18.463Z,4.60
2018-04-06T02:55:46.091Z,3.60
2018-04-06T02:58:13.722Z,3.40
2018-04-06T03:00:41.239Z,2.90
2018-04-06T03:03:08.796Z,2.87
2018-04-06T03:05:36.324Z,2.87
2018-04-06T03:08:03.841Z,4.27
2018-04-06T03:10:31.363Z,4.00
2018-04-06T03:12:58.892Z,3.80
2018-04-06T03:15:26.411Z,3.63
2018-04-06T03:17:53.963Z,3.17
2018-04-06T03:20:21.476Z,3.00
2018-04-06T03:22:49.025Z,4.37
2018-04-06T03:25:16.553Z,3.30
2018-04-06T03:27:44.069Z,3.97
2018-04-06T03:30:11.573Z,3.93
2018-04-06T03:32:39.088Z,3.73
2018-04-06T03:35:06.625Z,4.33
2018-04-06T03:37:34.149Z,4.20
2018-04-06T03:40:01.699Z,3.87
2018-04-06T03:42:29.214Z,3.60
2018-04-06T03:44:56.764Z,3.00
2018-04-06T03:47:24.286Z,3.40
2018-04-06T03:49:51.809Z,3.60
2018-04-06T03:52:19.437Z,3.07
2018-04-06T03:54:47.001Z,3.93
2018-04-06T03:57:14.517Z,4.13
2018-04-06T03:59:42.111Z,3.90
2018-04-06T04:02:09.631Z,3.73
2018-04-06T04:04:37.167Z,3.43
2018-04-06T04:07:04.710Z,3.63
2018-04-06T04:09:32.228Z,3.67
2018-04-06T04:11:59.741Z,3.70
2018-04-06T04:14:27.379Z,4.00
2018-04-06T04:16:54.904Z,4.27
2018-04-06T04:19:22.418Z,3.70
2018-04-06T04:21:50.054Z,3.93
2018-04-06T04:24:17.600Z,4.00
2018-04-06T04:26:45.104Z,3.50
2018-04-06T04:29:12.622Z,4.23
2018-04-06T04:31:40.183Z,3.90
2018-04-06T04:34:07.728Z,3.30
2018-04-06T04:36:35.271Z,3.20
2018-04-06T04:39:02.801Z,3.60
2018-04-06T04:41:30.320Z,3.87
2018-04-06T04:43:57.829Z,3.73
2018-04-06T04:46:25.347Z,3.97
2018-04-06T04:48:52.878Z,4.00
2018-04-06T04:51:20.397Z,3.93
2018-04-06T04:53:47.924Z,3.80
2018-04-06T04:56:15.453Z,3.83
2018-04-06T04:58:43.002Z,3.40
2018-04-06T05:01:10.517Z,4.13
2018-04-06T05:03:38.026Z,3.90
2018-04-06T05:06:05.555Z,4.60
2018-04-06T05:08:33.083Z,3.53
2018-04-06T05:11:00.607Z,3.73
2018-04-06T05:13:28.120Z,6.27
2018-04-06T05:15:55.633Z,4.03
2018-04-06T05:18:23.221Z,3.80
2018-04-06T05:20:50.748Z,3.70
2018-04-06T05:23:18.341Z,3.77
2018-04-06T05:25:45.867Z,3.77
2018-04-06T05:28:13.393Z,4.67
2018-04-06T05:30:40.914Z,3.87
2018-04-06T05:33:08.434Z,3.57
2018-04-06T05:35:35.949Z,4.00
2018-04-06T05:38:03.462Z,5.07
2018-04-06T05:40:30.985Z,3.77
2018-04-06T05:42:58.600Z,4.30
2018-04-06T05:45:26.172Z,4.73
2018-04-06T05:47:53.731Z,4.10
2018-04-06T05:50:21.265Z,5.27
2018-04-06T05:52:48.851Z,5.00
2018-04-06T05:55:16.415Z,3.37
2018-04-06T05:57:43.942Z,4.00
2018-04-06T06:00:11.537Z,4.30
2018-04-06T06:02:39.132Z,4.47
2018-04-06T06:05:06.658Z,3.97
2018-04-06T06:07:34.185Z,3.87
2018-04-06T06:10:01.702Z,4.07
2018-04-06T06:12:29.235Z,3.97
2018-04-06T06:14:56.761Z,4.27
2018-04-06T06:17:24.282Z,3.60
2018-04-06T06:19:51.810Z,3.80
2018-04-06T06:22:19.327Z,4.23
2018-04-06T06:24:46.842Z,4.63
2018-04-06T06:27:14.353Z,3.80
2018-04-06T06:29:41.948Z,4.37
2018-04-06T06:32:09.464Z,4.10
2018-04-06T06:34:37.055Z,4.77
2018-04-06T06:37:04.565Z,4.50
2018-04-06T06:39:32.081Z,4.00
2018-04-06T06:41:59.598Z,4.40
2018-04-06T06:44:27.127Z,3.83
2018-04-06T06:46:54.752Z,4.57
2018-04-06T06:49:22.282Z,4.40
2018-04-06T06:51:49.819Z,4.23
2018-04-06T06:54:17.403Z,4.37
2018-04-06T06:56:45.006Z,3.93
2018-04-06T06:59:12.530Z,3.37
2018-04-06T07:01:40.120Z,4.27
2018-04-06T07:04:07.641Z,8.80
2018-04-06T07:06:35.169Z,3.87
2018-04-06T07:09:02.686Z,3.43
2018-04-06T07:11:30.206Z,4.20
2018-04-06T07:13:57.733Z,4.03
2018-04-06T07:16:25.278Z,3.60
2018-04-06T07:18:52.826Z,3.33
2018-04-06T07:21:20.357Z,3.80
2018-04-06T07:23:47.985Z,4.07
2018-04-06T07:26:15.517Z,3.40
2018-04-06T07:28:43.047Z,4.10
2018-04-06T07:31:10.571Z,3.33
2018-04-06T07:33:38.103Z,3.50
2018-04-06T07:36:05.630Z,3.13
2018-04-06T07:38:33.157Z,3.30
2018-04-06T07:41:00.764Z,3.23
2018-04-06T07:43:28.344Z,3.37
2018-04-06T07:45:55.867Z,3.40
2018-04-06T07:48:23.387Z,3.17
2018-04-06T07:50:50.918Z,3.17
2018-04-06T07:53:18.632Z,3.23
2018-04-06T07:55:46.186Z,3.57
2018-04-06T07:58:13.800Z,3.17
2018-04-06T08:00:41.325Z,3.17
2018-04-06T08:03:08.849Z,3.10
2018-04-06T08:05:36.506Z,2.90
2018-04-06T08:08:04.038Z,2.53
2018-04-06T08:10:31.560Z,2.70
2018-04-06T08:12:59.130Z,2.67
2018-04-06T08:15:26.646Z,4.67
2018-04-06T08:17:54.175Z,2.63
2018-04-06T08:20:21.713Z,2.40
2018-04-06T08:22:49.236Z,2.40
2018-04-06T08:25:16.859Z,2.63
2018-04-06T08:27:44.388Z,2.87
2018-04-06T08:30:11.931Z,3.00
2018-04-06T08:32:39.538Z,2.63
2018-04-06T08:35:07.056Z,2.17
2018-04-06T08:37:34.593Z,2.67
2018-04-06T08:40:02.201Z,2.43
2018-04-06T08:42:29.824Z,2.00
2018-04-06T08:44:57.304Z,2.17
2018-04-06T08:47:24.826Z,2.07
2018-04-06T08:49:52.344Z,2.10
2018-04-06T08:52:19.866Z,2.20
2018-04-06T08:54:47.440Z,2.40
2018-04-06T08:57:14.951Z,2.28
2018-04-06T08:59:42.465Z,1.55
2018-04-06T09:02:09.984Z,1.20
2018-04-06T09:04:37.603Z,1.90
2018-04-06T09:07:05.174Z,1.95
2018-04-06T09:09:32.689Z,2.10
2018-04-06T09:12:00.219Z,2.20
2018-04-06T09:14:27.857Z,2.50
2018-04-06T09:16:55.430Z,6.80
2018-04-06T09:19:22.980Z,10.75
2018-04-06T09:21:50.518Z,4.50
2018-04-06T09:24:18.042Z,3.90
2018-04-06T09:26:45.630Z,5.45
2018-04-06T09:29:13.153Z,1.87
2018-04-06T09:31:40.674Z,1.67
2018-04-06T09:34:08.198Z,2.10
2018-04-06T09:36:35.752Z,1.92
2018-04-06T09:39:03.280Z,1.85
2018-04-06T09:41:30.951Z,1.90
2018-04-06T09:43:58.453Z,1.92
2018-04-06T09:46:25.990Z,1.80
2018-04-06T09:48:53.580Z,1.60
2018-04-06T09:51:21.123Z,1.95
2018-04-06T09:53:48.730Z,1.62
2018-04-06T09:56:16.258Z,1.85
2018-04-06T09:58:43.823Z,1.87
2018-04-06T10:01:11.332Z,1.80
2018-04-06T10:03:38.957Z,1.73
2018-04-06T10:06:06.518Z,1.35
2018-04-06T10:08:34.030Z,1.60
2018-04-06T10:11:01.558Z,1.30
2018-04-06T10:13:29.073Z,1.37
2018-04-06T10:15:56.592Z,1.80
2018-04-06T10:18:24.112Z,1.70
2018-04-06T10:20:51.621Z,1.75
2018-04-06T10:25:02.709Z,1.73
2018-04-06T10:27:29.438Z,1.60
2018-04-06T10:29:56.159Z,1.83
2018-04-06T10:32:22.877Z,2.03
2018-04-06T10:35:58.769Z,2.00
2018-04-06T10:38:26.297Z,1.60
2018-04-06T10:40:53.824Z,1.75
2018-04-06T10:43:21.386Z,1.65
2018-04-06T10:45:48.928Z,1.65
2018-04-06T10:48:16.537Z,1.98
2018-04-06T10:50:44.097Z,1.60
2018-04-06T10:53:11.618Z,2.00
2018-04-06T10:55:39.175Z,1.70
2018-04-06T10:58:06.779Z,1.87
2018-04-06T11:00:34.302Z,2.00
2018-04-06T11:03:01.912Z,1.87
2018-04-06T11:05:29.422Z,1.47
2018-04-06T11:07:56.986Z,1.57
2018-04-06T11:10:24.516Z,1.40
2018-04-06T11:12:52.136Z,1.47
2018-04-06T11:15:19.666Z,1.20
2018-04-06T11:17:47.183Z,1.37
2018-04-06T11:20:14.714Z,1.80
2018-04-06T11:22:42.240Z,1.43
2018-04-06T11:25:09.759Z,1.40
2018-04-06T11:27:37.293Z,1.53
2018-04-06T11:30:04.818Z,1.40
2018-04-06T11:32:32.461Z,1.40
2018-04-06T11:34:59.990Z,1.60
2018-04-06T11:37:27.568Z,1.43
2018-04-06T11:39:55.141Z,1.53
2018-04-06T11:42:22.829Z,1.40
2018-04-06T11:44:50.352Z,1.67
2018-04-06T11:47:17.873Z,1.37
2018-04-06T11:49:45.408Z,1.43
2018-04-06T11:52:12.948Z,1.53
2018-04-06T11:54:40.469Z,3.77
2018-04-06T11:57:07.979Z,1.90
2018-04-06T11:59:35.505Z,1.37
2018-04-06T12:02:03.029Z,1.57
2018-04-06T12:04:30.559Z,1.70
2018-04-06T12:06:58.157Z,1.80
2018-04-06T12:09:25.672Z,1.40
2018-04-06T12:11:53.273Z,1.70
2018-04-06T12:14:20.795Z,1.60
2018-04-06T12:16:48.323Z,1.70
2018-04-06T12:19:15.958Z,1.63
2018-04-06T12:21:43.473Z,1.60
2018-04-06T12:24:11.072Z,2.00
2018-04-06T12:26:38.631Z,1.77
2018-04-06T12:29:06.155Z,1.53
2018-04-06T12:31:33.683Z,1.40
2018-04-06T12:34:01.218Z,1.57
2018-04-06T12:36:28.734Z,1.80
2018-04-06T12:38:56.257Z,1.30
2018-04-06T12:41:23.785Z,1.50
2018-04-06T12:43:51.347Z,1.73
2018-04-06T12:46:18.899Z,1.63
2018-04-06T12:48:46.413Z,1.23
2018-04-06T12:51:14.024Z,1.70
2018-04-06T12:53:41.568Z,1.77
2018-04-06T12:56:09.114Z,1.83
2018-04-06T12:58:36.809Z,1.60
2018-04-06T13:01:04.335Z,1.73
2018-04-06T13:03:31.857Z,1.70
2018-04-06T13:05:59.482Z,1.70
2018-04-06T13:08:27.008Z,1.23
2018-04-06T13:10:54.562Z,1.40
2018-04-06T13:13:22.100Z,1.53
2018-04-06T13:15:49.722Z,1.40
2018-04-06T13:18:17.273Z,1.50
2018-04-06T13:20:44.803Z,1.53
2018-04-06T13:23:12.346Z,1.63
2018-04-06T13:25:39.888Z,1.70
2018-04-06T13:28:07.391Z,1.40
2018-04-06T13:30:34.913Z,1.37
2018-04-06T13:33:02.545Z,1.50
2018-04-06T13:35:30.106Z,1.60
2018-04-06T13:37:57.621Z,1.90
2018-04-06T13:40:25.159Z,1.73
2018-04-06T13:42:52.678Z,1.63
2018-04-06T13:45:20.193Z,1.37
2018-04-06T13:47:47.727Z,1.50
2018-04-06T13:50:15.233Z,1.10
2018-04-06T13:52:42.821Z,1.40
2018-04-06T13:55:10.382Z,1.40
2018-04-06T13:57:37.891Z,1.33
2018-04-06T14:00:05.409Z,1.43
2018-04-06T14:02:32.940Z,1.40
2018-04-06T14:05:00.451Z,1.50
2018-04-06T14:07:27.965Z,1.90
2018-04-06T14:09:55.484Z,1.50
2018-04-06T14:12:23.020Z,1.80
2018-04-06T14:14:50.537Z,1.50
2018-04-06T14:17:18.050Z,1.40
2018-04-06T14:19:45.574Z,1.30
2018-04-06T14:22:13.102Z,1.33
2018-04-06T14:24:40.631Z,1.67
2018-04-06T14:27:08.231Z,1.57
2018-04-06T14:29:35.746Z,1.40
2018-04-06T14:32:03.368Z,1.30
2018-04-06T14:34:30.891Z,1.43
2018-04-06T14:36:58.418Z,1.40
2018-04-06T14:39:25.933Z,1.23
2018-04-06T14:41:53.451Z,1.40
2018-04-06T14:44:20.990Z,1.10
2018-04-06T14:46:48.524Z,1.40
2018-04-06T14:49:16.037Z,1.47
2018-04-06T14:51:43.565Z,1.40
2018-04-06T14:54:11.102Z,1.53
2018-04-06T14:56:38.630Z,1.30
2018-04-06T14:59:06.216Z,1.57
2018-04-06T15:01:33.747Z,1.47
2018-04-06T15:04:01.283Z,1.43
2018-04-06T15:06:28.804Z,1.83
2018-04-06T15:08:56.330Z,1.20
2018-04-06T15:11:23.921Z,1.30
2018-04-06T15:13:51.468Z,1.20
2018-04-06T15:16:18.981Z,1.60
2018-04-06T15:18:46.599Z,1.20
2018-04-06T15:21:14.164Z,1.40
2018-04-06T15:23:41.694Z,1.63
2018-04-06T15:26:09.234Z,1.50
2018-04-06T15:28:36.760Z,1.43
2018-04-06T15:31:04.390Z,1.60
2018-04-06T15:33:31.914Z,1.37
2018-04-06T15:35:59.526Z,1.70
2018-04-06T15:38:27.049Z,1.27
2018-04-06T15:40:54.614Z,1.00
2018-04-06T15:43:22.191Z,1.30
2018-04-06T15:45:49.778Z,1.40
2018-04-06T15:48:17.292Z,1.40
2018-04-06T15:50:44.839Z,1.20
2018-04-06T15:53:12.442Z,1.30
2018-04-06T15:55:39.970Z,1.70
2018-04-06T15:58:07.488Z,1.17
2018-04-06T16:00:35.061Z,1.33
2018-04-06T16:03:02.605Z,1.00
2018-04-06T16:05:30.127Z,1.03
2018-04-06T16:07:57.642Z,0.87
2018-04-06T16:10:25.269Z,1.07
2018-04-06T16:12:52.794Z,1.20
2018-04-06T16:15:20.304Z,1.13
2018-04-06T16:17:47.822Z,1.50
2018-04-06T16:20:15.330Z,1.23
2018-04-06T16:22:42.857Z,0.87
2018-04-06T16:25:10.385Z,1.23
2018-04-06T16:27:37.900Z,1.00
2018-04-06T16:30:05.531Z,1.30
2018-04-06T16:32:33.061Z,1.50
2018-04-06T16:35:00.605Z,1.17
2018-04-06T16:37:28.226Z,1.17
2018-04-06T16:39:55.746Z,0.83
2018-04-06T16:42:23.267Z,1.10
2018-04-06T16:44:50.896Z,1.10
2018-04-06T16:47:18.432Z,1.10
2018-04-06T16:49:45.952Z,1.30
2018-04-06T16:52:13.470Z,1.30
2018-04-06T16:54:41.006Z,1.20
2018-04-06T16:57:08.521Z,1.83
2018-04-06T16:59:36.149Z,1.20
2018-04-06T17:02:03.655Z,1.60
2018-04-06T17:04:31.180Z,1.20
2018-04-06T17:06:58.709Z,1.47
2018-04-06T17:09:26.233Z,1.50
2018-04-06T17:11:53.856Z,1.53
2018-04-06T17:14:21.376Z,1.77
2018-04-06T17:16:48.913Z,1.40
2018-04-06T17:19:16.433Z,1.60
2018-04-06T17:21:43.993Z,1.43
2018-04-06T17:24:11.552Z,1.83
2018-04-06T17:26:39.066Z,1.87
2018-04-06T17:29:06.672Z,1.80
2018-04-06T17:31:34.208Z,1.53
2018-04-06T17:34:01.722Z,1.50
2018-04-06T17:36:29.250Z,1.80
2018-04-06T17:38:56.779Z,1.67
2018-04-06T17:41:24.305Z,1.60
2018-04-06T17:43:51.857Z,1.70
2018-04-06T17:46:19.461Z,1.80
2018-04-06T17:48:46.975Z,2.87
2018-04-06T17:51:14.508Z,4.60
2018-04-06T17:53:42.044Z,2.03
2018-04-06T17:56:09.577Z,2.30
2018-04-06T17:58:37.156Z,4.73
2018-04-06T18:01:04.699Z,3.10
2018-04-06T18:03:32.220Z,3.30
2018-04-06T18:05:59.738Z,2.37
2018-04-06T18:08:27.325Z,3.30
2018-04-06T18:10:54.916Z,2.80
2018-04-06T18:13:22.429Z,2.13
2018-04-06T18:15:50.004Z,2.50
2018-04-06T18:18:17.530Z,1.83
2018-04-06T18:20:45.056Z,2.33
2018-04-06T18:23:12.579Z,2.53
2018-04-06T18:25:40.100Z,2.97
2018-04-06T18:28:07.656Z,2.37
2018-04-06T18:30:35.185Z,2.40
2018-04-06T18:33:02.712Z,2.30
2018-04-06T18:35:30.228Z,3.43
2018-04-06T18:37:57.759Z,4.00
2018-04-06T18:40:25.281Z,3.17
2018-04-06T18:42:52.798Z,4.40
2018-04-06T18:45:20.413Z,4.03
2018-04-06T18:47:47.931Z,3.80
2018-04-06T18:50:15.441Z,3.40
2018-04-06T18:52:42.958Z,3.13
2018-04-06T18:55:10.519Z,2.53
2018-04-06T18:57:38.067Z,2.57
2018-04-06T19:00:05.594Z,2.73
2018-04-06T19:02:33.118Z,2.67
2018-04-06T19:05:00.638Z,3.20
2018-04-06T19:07:28.174Z,3.30
2018-04-06T19:09:55.708Z,2.90
2018-04-06T19:12:23.233Z,3.83
2018-04-06T19:14:50.829Z,3.57
2018-04-06T19:17:18.383Z,4.00
2018-04-06T19:19:45.913Z,3.13
2018-04-06T19:22:13.430Z,3.20
2018-04-06T19:24:40.949Z,3.20
2018-04-06T19:27:08.734Z,3.17
2018-04-06T19:29:36.258Z,3.67
2018-04-06T19:32:03.782Z,3.73
2018-04-06T19:34:31.303Z,3.67
2018-04-06T19:36:58.862Z,4.07
2018-04-06T19:39:26.381Z,4.40
2018-04-06T19:41:54.044Z,4.53
2018-04-06T19:44:21.666Z,4.87
2018-04-06T19:46:49.234Z,4.00
2018-04-06T19:49:16.874Z,3.93
2018-04-06T19:51:44.397Z,4.13
2018-04-06T19:54:11.959Z,3.97
2018-04-06T19:56:39.497Z,4.17
2018-04-06T19:59:07.022Z,3.73
2018-04-06T20:01:34.564Z,4.10
2018-04-06T20:04:02.134Z,4.40
2018-04-06T20:06:29.686Z,4.60
2018-04-06T20:08:57.274Z,4.13
2018-04-06T20:11:24.921Z,4.83
2018-04-06T20:13:52.576Z,5.10
2018-04-06T20:16:20.106Z,4.63
2018-04-06T20:18:47.618Z,4.83
2018-04-06T20:21:15.149Z,5.00
2018-04-06T20:23:42.666Z,5.07
2018-04-06T20:26:10.221Z,5.77
2018-04-06T20:28:37.797Z,4.50
2018-04-06T20:31:05.570Z,4.27
2018-04-06T20:33:33.162Z,4.70
2018-04-06T20:36:00.823Z,4.43
2018-04-06T20:38:28.337Z,4.70
2018-04-06T20:40:55.848Z,4.80
2018-04-06T20:43:23.392Z,5.03
2018-04-06T20:45:51.164Z,5.63
2018-04-06T20:48:18.913Z,4.80
2018-04-06T20:50:46.532Z,5.70
2018-04-06T20:53:14.072Z,5.37
2018-04-06T20:55:41.610Z,5.77
2018-04-06T20:58:09.161Z,5.60
2018-04-06T21:00:36.677Z,5.70
2018-04-06T21:03:04.276Z,6.30
2018-04-06T21:05:31.878Z,6.63
2018-04-06T21:07:59.408Z,5.77
2018-04-06T21:10:26.930Z,5.97
2018-04-06T21:12:54.469Z,6.57
2018-04-06T21:15:21.994Z,6.40
2018-04-06T21:17:49.509Z,6.03
2018-04-06T21:20:17.103Z,6.43
2018-04-06T21:22:44.629Z,5.30
2018-04-06T21:25:12.150Z,6.20
2018-04-06T21:27:39.779Z,5.90
2018-04-06T21:30:07.297Z,5.90
2018-04-06T21:32:34.842Z,5.97
2018-04-06T21:35:02.380Z,5.70
2018-04-06T21:37:29.894Z,5.70
2018-04-06T21:39:57.412Z,5.60
2018-04-06T21:42:24.925Z,5.63
2018-04-06T21:44:52.442Z,4.97
2018-04-06T21:47:19.983Z,5.57
2018-04-06T21:49:47.512Z,6.37
2018-04-06T21:52:15.025Z,5.17
2018-04-06T21:54:42.637Z,5.60
2018-04-06T21:57:10.367Z,5.40
2018-04-06T21:59:37.880Z,4.50
2018-04-06T22:02:05.399Z,4.73
2018-04-06T22:04:32.980Z,4.70
2018-04-06T22:07:00.490Z,4.43
2018-04-06T22:09:28.030Z,4.63
2018-04-06T22:11:55.540Z,4.90
2018-04-06T22:14:23.055Z,4.57
2018-04-06T22:16:50.574Z,5.53
2018-04-06T22:19:18.090Z,4.53
2018-04-06T22:21:45.601Z,4.90
2018-04-06T22:24:13.116Z,4.97
2018-04-06T22:26:40.711Z,4.90
2018-04-06T22:29:08.249Z,4.97
2018-04-06T22:31:35.767Z,4.60
2018-04-06T22:34:03.391Z,4.90
2018-04-06T22:36:30.919Z,5.00
2018-04-06T22:38:58.438Z,5.13
2018-04-06T22:41:25.981Z,4.70
2018-04-06T22:43:53.496Z,4.63
2018-04-06T22:46:21.091Z,4.20
2018-04-06T22:48:48.716Z,4.40
2018-04-06T22:51:16.233Z,4.03
2018-04-06T22:53:44.280Z,4.37
2018-04-06T22:56:11.919Z,4.43
2018-04-06T22:58:39.421Z,4.20
2018-04-06T23:01:06.930Z,4.20
2018-04-06T23:03:34.452Z,4.20
2018-04-06T23:06:02.022Z,4.40
2018-04-06T23:08:29.558Z,4.57
2018-04-06T23:10:57.200Z,3.73
2018-04-06T23:13:24.729Z,3.93
2018-04-06T23:15:52.277Z,4.50
2018-04-06T23:18:19.796Z,4.13
2018-04-06T23:20:47.333Z,4.07
2018-04-06T23:23:14.898Z,4.07
2018-04-06T23:25:42.442Z,4.13
2018-04-06T23:28:09.959Z,4.13
2018-04-06T23:30:37.573Z,3.73
2018-04-06T23:33:05.135Z,3.90
2018-04-06T23:35:32.644Z,4.00
2018-04-06T23:38:00.245Z,3.83
2018-04-06T23:40:27.754Z,4.40
2018-04-06T23:42:55.274Z,4.27
2018-04-06T23:45:22.800Z,4.30
2018-04-06T23:47:50.354Z,4.03
2018-04-06T23:50:17.866Z,4.60
2018-04-06T23:52:45.384Z,4.37
2018-04-06T23:55:12.977Z,4.90
2018-04-06T23:57:41.590Z,4.43
